Weather at Detroit Metropolitan Wayne County Airport

Public forecast

Using degrees Fahrenheit for public forecast. Weather courtesy of forecast.io.

Current aviation weather report (METAR) for Detroit Metropolitan Wayne County Airport

Retrieved 2021/09/27 00:53 UTC (10 minutes ago):

KDTW 270053Z 20006KT 10SM BKN120 BKN250 18/11 A2988 RMK AO2 SLP119 T01830111

Aviation forecast (TAF) for Detroit Metropolitan Wayne County Airport

Retrieved 2021-09-27 00:34 UTC (29 minutes ago):

TAF KDTW 262332Z 2700/2806 22010KT P6SM SCT100 BKN250 WS015/25040KT FM271300 24013G20KT P6SM BKN250 FM271600 24013KT P6SM SCT040 FM272000 30010KT P6SM BKN045 FM280100 03010KT P6SM SCT025 OVC040